sensor_id;sensor_type;location;lat;lon;timestamp;temperature;humidity
9768;DHT22;4923;52.520;13.494;2024-01-30T00:00:25;2.50;99.90
9768;DHT22;4923;52.520;13.494;2024-01-30T00:03:12;2.40;99.90
9768;DHT22;4923;52.520;13.494;2024-01-30T00:05:59;2.40;99.90
9768;DHT22;4923;52.520;13.494;2024-01-30T00:08:47;2.40;99.90
9768;DHT22;4923;52.520;13.494;2024-01-30T00:11:35;2.30;99.90
9768;DHT22;4923;52.520;13.494;2024-01-30T00:14:22;2.30;99.90
9768;DHT22;4923;52.520;13.494;2024-01-30T00:17:09;2.30;99.90
9768;DHT22;4923;52.520;13.494;2024-01-30T00:19:56;2.30;99.90
9768;DHT22;4923;52.520;13.494;2024-01-30T00:22:43;2.30;99.90
9768;DHT22;4923;52.520;13.494;2024-01-30T00:25:31;2.30;99.90
9768;DHT22;4923;52.520;13.494;2024-01-30T00:28:19;2.20;99.90
9768;DHT22;4923;52.520;13.494;2024-01-30T00:31:05;2.10;99.90
9768;DHT22;4923;52.520;13.494;2024-01-30T00:33:52;2.10;99.90
9768;DHT22;4923;52.520;13.494;2024-01-30T00:36:39;2.10;99.90
9768;DHT22;4923;52.520;13.494;2024-01-30T00:39:26;2.10;99.90
9768;DHT22;4923;52.520;13.494;2024-01-30T00:42:15;2.10;99.90
9768;DHT22;4923;52.520;13.494;2024-01-30T00:45:02;2.00;99.90
9768;DHT22;4923;52.520;13.494;2024-01-30T00:47:48;2.00;99.90
9768;DHT22;4923;52.520;13.494;2024-01-30T00:50:35;2.00;99.90
9768;DHT22;4923;52.520;13.494;2024-01-30T00:53:22;2.00;99.90
9768;DHT22;4923;52.520;13.494;2024-01-30T00:56:09;2.00;99.90
9768;DHT22;4923;52.520;13.494;2024-01-30T00:58:57;2.00;99.90
9768;DHT22;4923;52.520;13.494;2024-01-30T01:01:44;1.90;99.90
9768;DHT22;4923;52.520;13.494;2024-01-30T01:04:31;1.90;99.90
9768;DHT22;4923;52.520;13.494;2024-01-30T01:07:18;1.80;99.90
9768;DHT22;4923;52.520;13.494;2024-01-30T01:10:05;1.80;99.90
9768;DHT22;4923;52.520;13.494;2024-01-30T01:12:53;1.80;99.90
9768;DHT22;4923;52.520;13.494;2024-01-30T01:15:41;1.80;99.90
9768;DHT22;4923;52.520;13.494;2024-01-30T01:18:27;1.80;99.90
9768;DHT22;4923;52.520;13.494;2024-01-30T01:21:14;1.70;99.90
9768;DHT22;4923;52.520;13.494;2024-01-30T01:24:02;1.70;99.90
9768;DHT22;4923;52.520;13.494;2024-01-30T01:26:48;1.70;99.90
9768;DHT22;4923;52.520;13.494;2024-01-30T01:29:35;1.70;99.90
9768;DHT22;4923;52.520;13.494;2024-01-30T01:32:23;1.70;99.90
9768;DHT22;4923;52.520;13.494;2024-01-30T01:35:10;1.70;99.90
9768;DHT22;4923;52.520;13.494;2024-01-30T01:37:57;1.60;99.90
9768;DHT22;4923;52.520;13.494;2024-01-30T01:40:45;1.60;99.90
9768;DHT22;4923;52.520;13.494;2024-01-30T01:43:32;1.50;99.90
9768;DHT22;4923;52.520;13.494;2024-01-30T01:46:19;1.40;99.90
9768;DHT22;4923;52.520;13.494;2024-01-30T01:49:07;1.50;99.90
9768;DHT22;4923;52.520;13.494;2024-01-30T01:51:55;1.40;99.90
9768;DHT22;4923;52.520;13.494;2024-01-30T01:54:43;1.40;99.90
9768;DHT22;4923;52.520;13.494;2024-01-30T01:57:30;1.30;99.90
9768;DHT22;4923;52.520;13.494;2024-01-30T02:00:18;1.30;99.90
9768;DHT22;4923;52.520;13.494;2024-01-30T02:03:05;1.40;99.90
9768;DHT22;4923;52.520;13.494;2024-01-30T02:05:55;1.40;99.90
9768;DHT22;4923;52.520;13.494;2024-01-30T02:08:43;1.40;99.90
9768;DHT22;4923;52.520;13.494;2024-01-30T02:11:29;1.50;99.90
9768;DHT22;4923;52.520;13.494;2024-01-30T02:14:17;1.40;99.90
9768;DHT22;4923;52.520;13.494;2024-01-30T02:17:04;1.30;99.90
9768;DHT22;4923;52.520;13.494;2024-01-30T02:19:51;1.40;99.90
9768;DHT22;4923;52.520;13.494;2024-01-30T02:22:40;1.40;99.90
9768;DHT22;4923;52.520;13.494;2024-01-30T02:25:32;1.40;99.90
9768;DHT22;4923;52.520;13.494;2024-01-30T02:28:20;1.50;99.90
9768;DHT22;4923;52.520;13.494;2024-01-30T02:31:07;1.40;99.90
9768;DHT22;4923;52.520;13.494;2024-01-30T02:33:54;1.50;99.90
9768;DHT22;4923;52.520;13.494;2024-01-30T02:36:42;1.50;99.90
9768;DHT22;4923;52.520;13.494;2024-01-30T02:39:30;1.50;99.90
9768;DHT22;4923;52.520;13.494;2024-01-30T02:42:17;1.60;99.90
9768;DHT22;4923;52.520;13.494;2024-01-30T02:45:04;1.60;99.90
9768;DHT22;4923;52.520;13.494;2024-01-30T02:47:52;1.70;99.90
9768;DHT22;4923;52.520;13.494;2024-01-30T02:50:38;1.70;99.90
9768;DHT22;4923;52.520;13.494;2024-01-30T02:53:25;1.70;99.90
9768;DHT22;4923;52.520;13.494;2024-01-30T02:56:13;1.70;99.90
9768;DHT22;4923;52.520;13.494;2024-01-30T02:59:00;1.70;99.90
9768;DHT22;4923;52.520;13.494;2024-01-30T03:01:47;1.70;99.90
9768;DHT22;4923;52.520;13.494;2024-01-30T03:04:34;1.70;99.90
9768;DHT22;4923;52.520;13.494;2024-01-30T03:07:21;1.80;99.90
9768;DHT22;4923;52.520;13.494;2024-01-30T03:10:08;1.70;99.90
9768;DHT22;4923;52.520;13.494;2024-01-30T03:12:56;1.70;99.90
9768;DHT22;4923;52.520;13.494;2024-01-30T03:15:43;1.70;99.90
9768;DHT22;4923;52.520;13.494;2024-01-30T03:18:30;1.70;99.90
9768;DHT22;4923;52.520;13.494;2024-01-30T03:21:16;1.60;99.90
9768;DHT22;4923;52.520;13.494;2024-01-30T03:24:04;1.60;99.90
9768;DHT22;4923;52.520;13.494;2024-01-30T03:26:51;1.60;99.90
9768;DHT22;4923;52.520;13.494;2024-01-30T03:29:39;1.60;99.90
9768;DHT22;4923;52.520;13.494;2024-01-30T03:32:26;1.60;99.90
9768;DHT22;4923;52.520;13.494;2024-01-30T03:35:12;1.50;99.90
9768;DHT22;4923;52.520;13.494;2024-01-30T03:37:59;1.50;99.90
9768;DHT22;4923;52.520;13.494;2024-01-30T03:40:46;1.50;99.90
9768;DHT22;4923;52.520;13.494;2024-01-30T03:43:33;1.50;99.90
9768;DHT22;4923;52.520;13.494;2024-01-30T03:46:21;1.40;99.90
9768;DHT22;4923;52.520;13.494;2024-01-30T03:49:09;1.40;99.90
9768;DHT22;4923;52.520;13.494;2024-01-30T03:51:56;1.40;99.90
9768;DHT22;4923;52.520;13.494;2024-01-30T03:54:43;1.50;99.90
9768;DHT22;4923;52.520;13.494;2024-01-30T03:57:30;1.50;99.90
9768;DHT22;4923;52.520;13.494;2024-01-30T04:00:17;1.50;99.90
9768;DHT22;4923;52.520;13.494;2024-01-30T04:03:05;1.50;99.90
9768;DHT22;4923;52.520;13.494;2024-01-30T04:05:52;1.50;99.90
9768;DHT22;4923;52.520;13.494;2024-01-30T04:08:39;1.40;99.90
9768;DHT22;4923;52.520;13.494;2024-01-30T04:11:26;1.40;99.90
9768;DHT22;4923;52.520;13.494;2024-01-30T04:14:13;1.40;99.90
9768;DHT22;4923;52.520;13.494;2024-01-30T04:17:00;1.40;99.90
9768;DHT22;4923;52.520;13.494;2024-01-30T04:19:48;1.40;99.90
9768;DHT22;4923;52.520;13.494;2024-01-30T04:22:35;1.40;99.90
9768;DHT22;4923;52.520;13.494;2024-01-30T04:25:22;1.40;99.90
9768;DHT22;4923;52.520;13.494;2024-01-30T04:28:09;1.40;99.90
9768;DHT22;4923;52.520;13.494;2024-01-30T04:30:57;1.40;99.90
9768;DHT22;4923;52.520;13.494;2024-01-30T04:33:44;1.40;99.90
9768;DHT22;4923;52.520;13.494;2024-01-30T04:36:32;1.40;99.90
9768;DHT22;4923;52.520;13.494;2024-01-30T04:39:19;1.50;99.90
9768;DHT22;4923;52.520;13.494;2024-01-30T04:42:06;1.60;99.90
9768;DHT22;4923;52.520;13.494;2024-01-30T04:44:53;1.50;99.90
9768;DHT22;4923;52.520;13.494;2024-01-30T04:47:39;1.50;99.90
9768;DHT22;4923;52.520;13.494;2024-01-30T04:50:26;1.60;99.90
9768;DHT22;4923;52.520;13.494;2024-01-30T04:53:14;1.60;99.90
9768;DHT22;4923;52.520;13.494;2024-01-30T04:56:01;1.60;99.90
9768;DHT22;4923;52.520;13.494;2024-01-30T04:58:48;1.60;99.90
9768;DHT22;4923;52.520;13.494;2024-01-30T05:01:35;1.60;99.90
9768;DHT22;4923;52.520;13.494;2024-01-30T05:04:22;1.60;99.90
9768;DHT22;4923;52.520;13.494;2024-01-30T05:07:08;1.60;99.90
9768;DHT22;4923;52.520;13.494;2024-01-30T05:09:57;1.50;99.90
9768;DHT22;4923;52.520;13.494;2024-01-30T05:12:44;1.60;99.90
9768;DHT22;4923;52.520;13.494;2024-01-30T05:15:31;1.60;99.90
9768;DHT22;4923;52.520;13.494;2024-01-30T05:18:17;1.60;99.90
9768;DHT22;4923;52.520;13.494;2024-01-30T05:21:05;1.60;99.90
9768;DHT22;4923;52.520;13.494;2024-01-30T05:23:52;1.50;99.90
9768;DHT22;4923;52.520;13.494;2024-01-30T05:26:40;1.50;99.90
9768;DHT22;4923;52.520;13.494;2024-01-30T05:29:27;1.50;99.90
9768;DHT22;4923;52.520;13.494;2024-01-30T05:32:14;1.60;99.90
9768;DHT22;4923;52.520;13.494;2024-01-30T05:35:01;1.50;99.90
9768;DHT22;4923;52.520;13.494;2024-01-30T05:37:48;1.50;99.90
9768;DHT22;4923;52.520;13.494;2024-01-30T05:40:35;1.50;99.90
9768;DHT22;4923;52.520;13.494;2024-01-30T05:43:24;1.50;99.90
9768;DHT22;4923;52.520;13.494;2024-01-30T05:46:11;1.50;99.90
9768;DHT22;4923;52.520;13.494;2024-01-30T05:48:58;1.50;99.90
9768;DHT22;4923;52.520;13.494;2024-01-30T05:51:45;1.50;99.90
9768;DHT22;4923;52.520;13.494;2024-01-30T05:54:31;1.50;99.90
9768;DHT22;4923;52.520;13.494;2024-01-30T05:57:18;1.50;99.90
9768;DHT22;4923;52.520;13.494;2024-01-30T06:00:07;1.60;99.90
9768;DHT22;4923;52.520;13.494;2024-01-30T06:02:54;1.60;99.90
9768;DHT22;4923;52.520;13.494;2024-01-30T06:05:41;1.50;99.90
9768;DHT22;4923;52.520;13.494;2024-01-30T06:08:28;1.50;99.90
9768;DHT22;4923;52.520;13.494;2024-01-30T06:11:15;1.50;99.90
9768;DHT22;4923;52.520;13.494;2024-01-30T06:14:02;1.50;99.90
9768;DHT22;4923;52.520;13.494;2024-01-30T06:16:50;1.60;99.90
9768;DHT22;4923;52.520;13.494;2024-01-30T06:19:37;1.60;99.90
9768;DHT22;4923;52.520;13.494;2024-01-30T06:22:24;1.60;99.90
9768;DHT22;4923;52.520;13.494;2024-01-30T06:25:11;1.60;99.90
9768;DHT22;4923;52.520;13.494;2024-01-30T06:27:58;1.60;99.90
9768;DHT22;4923;52.520;13.494;2024-01-30T06:30:44;1.60;99.90
9768;DHT22;4923;52.520;13.494;2024-01-30T06:33:33;1.60;99.90
9768;DHT22;4923;52.520;13.494;2024-01-30T06:36:19;1.70;99.90
9768;DHT22;4923;52.520;13.494;2024-01-30T06:39:06;1.70;99.90
9768;DHT22;4923;52.520;13.494;2024-01-30T06:41:53;1.60;99.90
9768;DHT22;4923;52.520;13.494;2024-01-30T06:44:40;1.70;99.90
9768;DHT22;4923;52.520;13.494;2024-01-30T06:47:27;1.60;99.90
9768;DHT22;4923;52.520;13.494;2024-01-30T06:50:15;1.70;99.90
9768;DHT22;4923;52.520;13.494;2024-01-30T06:53:02;1.80;99.90
9768;DHT22;4923;52.520;13.494;2024-01-30T06:55:51;1.80;99.90
9768;DHT22;4923;52.520;13.494;2024-01-30T06:58:38;1.70;99.90
9768;DHT22;4923;52.520;13.494;2024-01-30T07:01:28;1.70;99.90
9768;DHT22;4923;52.520;13.494;2024-01-30T07:04:15;1.80;99.90
9768;DHT22;4923;52.520;13.494;2024-01-30T07:07:05;1.70;99.90
9768;DHT22;4923;52.520;13.494;2024-01-30T07:09:57;1.80;99.90
9768;DHT22;4923;52.520;13.494;2024-01-30T07:12:44;1.80;99.90
9768;DHT22;4923;52.520;13.494;2024-01-30T07:15:31;1.80;99.90
9768;DHT22;4923;52.520;13.494;2024-01-30T07:18:17;1.80;99.90
9768;DHT22;4923;52.520;13.494;2024-01-30T07:21:05;1.80;99.90
9768;DHT22;4923;52.520;13.494;2024-01-30T07:23:53;1.90;99.90
9768;DHT22;4923;52.520;13.494;2024-01-30T07:26:40;2.00;99.90
9768;DHT22;4923;52.520;13.494;2024-01-30T07:29:27;2.00;99.90
9768;DHT22;4923;52.520;13.494;2024-01-30T07:32:13;2.00;99.90
9768;DHT22;4923;52.520;13.494;2024-01-30T07:35:00;2.10;99.90
9768;DHT22;4923;52.520;13.494;2024-01-30T07:37:47;2.10;99.90
9768;DHT22;4923;52.520;13.494;2024-01-30T07:40:35;2.20;99.90
9768;DHT22;4923;52.520;13.494;2024-01-30T07:43:22;2.30;99.90
9768;DHT22;4923;52.520;13.494;2024-01-30T07:46:09;2.40;99.90
9768;DHT22;4923;52.520;13.494;2024-01-30T07:48:56;2.50;99.90
9768;DHT22;4923;52.520;13.494;2024-01-30T07:51:43;2.60;99.90
9768;DHT22;4923;52.520;13.494;2024-01-30T07:54:30;2.80;99.90
9768;DHT22;4923;52.520;13.494;2024-01-30T07:57:20;3.00;99.90
9768;DHT22;4923;52.520;13.494;2024-01-30T08:00:07;3.10;99.90
9768;DHT22;4923;52.520;13.494;2024-01-30T08:02:54;3.30;99.90
9768;DHT22;4923;52.520;13.494;2024-01-30T08:05:41;3.30;99.90
9768;DHT22;4923;52.520;13.494;2024-01-30T08:08:28;4.20;99.90
9768;DHT22;4923;52.520;13.494;2024-01-30T08:11:15;4.20;99.90
9768;DHT22;4923;52.520;13.494;2024-01-30T08:14:03;3.90;99.90
9768;DHT22;4923;52.520;13.494;2024-01-30T08:16:49;3.90;99.90
9768;DHT22;4923;52.520;13.494;2024-01-30T08:19:36;3.90;99.90
9768;DHT22;4923;52.520;13.494;2024-01-30T08:22:23;3.80;99.90
9768;DHT22;4923;52.520;13.494;2024-01-30T08:25:10;3.80;99.90
9768;DHT22;4923;52.520;13.494;2024-01-30T08:27:57;3.90;99.90
9768;DHT22;4923;52.520;13.494;2024-01-30T08:30:45;3.90;99.90
9768;DHT22;4923;52.520;13.494;2024-01-30T08:33:32;3.90;99.90
9768;DHT22;4923;52.520;13.494;2024-01-30T08:36:19;3.90;99.90
9768;DHT22;4923;52.520;13.494;2024-01-30T08:39:06;3.90;99.90
9768;DHT22;4923;52.520;13.494;2024-01-30T08:41:53;4.00;99.90
9768;DHT22;4923;52.520;13.494;2024-01-30T08:44:40;4.00;99.90
9768;DHT22;4923;52.520;13.494;2024-01-30T08:47:28;4.20;99.90
9768;DHT22;4923;52.520;13.494;2024-01-30T08:50:15;4.30;99.90
9768;DHT22;4923;52.520;13.494;2024-01-30T08:53:02;4.40;99.90
9768;DHT22;4923;52.520;13.494;2024-01-30T08:55:49;4.50;99.90
9768;DHT22;4923;52.520;13.494;2024-01-30T08:58:36;4.70;99.90
9768;DHT22;4923;52.520;13.494;2024-01-30T09:01:22;4.90;99.90
9768;DHT22;4923;52.520;13.494;2024-01-30T09:04:11;5.00;99.90
9768;DHT22;4923;52.520;13.494;2024-01-30T09:06:57;5.10;99.90
9768;DHT22;4923;52.520;13.494;2024-01-30T09:09:44;5.40;99.90
9768;DHT22;4923;52.520;13.494;2024-01-30T09:12:31;5.60;99.90
9768;DHT22;4923;52.520;13.494;2024-01-30T09:15:18;5.70;99.90
9768;DHT22;4923;52.520;13.494;2024-01-30T09:18:06;5.80;99.90
9768;DHT22;4923;52.520;13.494;2024-01-30T09:20:54;5.90;99.90
9768;DHT22;4923;52.520;13.494;2024-01-30T09:23:41;5.90;99.90
9768;DHT22;4923;52.520;13.494;2024-01-30T09:26:28;6.10;99.90
9768;DHT22;4923;52.520;13.494;2024-01-30T09:29:15;6.10;99.90
9768;DHT22;4923;52.520;13.494;2024-01-30T09:32:02;6.10;99.90
9768;DHT22;4923;52.520;13.494;2024-01-30T09:34:49;6.20;99.90
9768;DHT22;4923;52.520;13.494;2024-01-30T09:37:37;6.30;99.90
9768;DHT22;4923;52.520;13.494;2024-01-30T09:40:24;6.30;99.90
9768;DHT22;4923;52.520;13.494;2024-01-30T09:43:14;6.40;99.90
9768;DHT22;4923;52.520;13.494;2024-01-30T09:46:05;6.50;99.90
9768;DHT22;4923;52.520;13.494;2024-01-30T09:48:55;6.50;99.90
9768;DHT22;4923;52.520;13.494;2024-01-30T09:51:42;6.70;99.90
9768;DHT22;4923;52.520;13.494;2024-01-30T09:54:31;6.70;99.90
9768;DHT22;4923;52.520;13.494;2024-01-30T09:57:18;6.70;99.90
9768;DHT22;4923;52.520;13.494;2024-01-30T10:00:06;6.60;99.90
9768;DHT22;4923;52.520;13.494;2024-01-30T10:02:54;6.70;99.90
9768;DHT22;4923;52.520;13.494;2024-01-30T10:05:41;6.80;99.90
9768;DHT22;4923;52.520;13.494;2024-01-30T10:08:30;6.90;99.90
9768;DHT22;4923;52.520;13.494;2024-01-30T10:11:18;7.00;99.90
9768;DHT22;4923;52.520;13.494;2024-01-30T10:14:05;7.10;99.90
9768;DHT22;4923;52.520;13.494;2024-01-30T10:16:52;7.20;99.90
9768;DHT22;4923;52.520;13.494;2024-01-30T10:19:40;7.40;99.90
9768;DHT22;4923;52.520;13.494;2024-01-30T10:22:27;7.50;99.90
9768;DHT22;4923;52.520;13.494;2024-01-30T10:25:15;7.50;99.90
9768;DHT22;4923;52.520;13.494;2024-01-30T10:28:04;7.60;99.90
9768;DHT22;4923;52.520;13.494;2024-01-30T10:30:57;7.70;99.90
9768;DHT22;4923;52.520;13.494;2024-01-30T10:33:45;7.70;99.90
9768;DHT22;4923;52.520;13.494;2024-01-30T10:36:38;7.80;99.90
9768;DHT22;4923;52.520;13.494;2024-01-30T10:39:28;7.90;99.90
9768;DHT22;4923;52.520;13.494;2024-01-30T10:42:17;7.80;99.90
9768;DHT22;4923;52.520;13.494;2024-01-30T10:45:08;8.00;99.90
9768;DHT22;4923;52.520;13.494;2024-01-30T10:47:55;8.00;99.90
9768;DHT22;4923;52.520;13.494;2024-01-30T10:50:43;8.00;99.90
9768;DHT22;4923;52.520;13.494;2024-01-30T10:53:32;7.90;99.90
9768;DHT22;4923;52.520;13.494;2024-01-30T10:56:20;7.90;99.90
9768;DHT22;4923;52.520;13.494;2024-01-30T10:59:07;8.00;99.90
9768;DHT22;4923;52.520;13.494;2024-01-30T11:01:57;8.10;99.90
9768;DHT22;4923;52.520;13.494;2024-01-30T11:04:45;8.10;99.90
9768;DHT22;4923;52.520;13.494;2024-01-30T11:07:33;8.30;99.90
9768;DHT22;4923;52.520;13.494;2024-01-30T11:10:20;8.30;99.90
9768;DHT22;4923;52.520;13.494;2024-01-30T11:13:10;8.30;99.90
9768;DHT22;4923;52.520;13.494;2024-01-30T11:16:00;8.50;99.90
9768;DHT22;4923;52.520;13.494;2024-01-30T11:18:51;8.40;99.90
9768;DHT22;4923;52.520;13.494;2024-01-30T11:21:41;8.50;99.90
9768;DHT22;4923;52.520;13.494;2024-01-30T11:24:28;8.50;99.90
9768;DHT22;4923;52.520;13.494;2024-01-30T11:27:15;8.50;99.90
9768;DHT22;4923;52.520;13.494;2024-01-30T11:30:03;8.60;99.90
9768;DHT22;4923;52.520;13.494;2024-01-30T11:33:03;8.60;99.90
9768;DHT22;4923;52.520;13.494;2024-01-30T11:35:53;8.50;99.90
9768;DHT22;4923;52.520;13.494;2024-01-30T11:38:39;8.50;99.90
9768;DHT22;4923;52.520;13.494;2024-01-30T11:41:29;8.70;99.90
9768;DHT22;4923;52.520;13.494;2024-01-30T11:44:16;8.90;99.90
9768;DHT22;4923;52.520;13.494;2024-01-30T11:47:03;9.00;99.90
9768;DHT22;4923;52.520;13.494;2024-01-30T11:49:50;9.20;99.90
9768;DHT22;4923;52.520;13.494;2024-01-30T11:52:38;9.20;99.90
9768;DHT22;4923;52.520;13.494;2024-01-30T11:55:25;9.30;99.90
9768;DHT22;4923;52.520;13.494;2024-01-30T11:58:13;9.30;99.90
9768;DHT22;4923;52.520;13.494;2024-01-30T12:01:00;9.50;99.90
9768;DHT22;4923;52.520;13.494;2024-01-30T12:03:49;9.60;99.90
9768;DHT22;4923;52.520;13.494;2024-01-30T12:06:36;9.70;99.90
9768;DHT22;4923;52.520;13.494;2024-01-30T12:09:24;9.80;99.90
9768;DHT22;4923;52.520;13.494;2024-01-30T12:12:11;9.80;99.90
9768;DHT22;4923;52.520;13.494;2024-01-30T12:15:00;9.90;99.90
9768;DHT22;4923;52.520;13.494;2024-01-30T12:17:47;10.00;99.90
9768;DHT22;4923;52.520;13.494;2024-01-30T12:20:34;10.10;99.90
9768;DHT22;4923;52.520;13.494;2024-01-30T12:23:21;10.10;99.90
9768;DHT22;4923;52.520;13.494;2024-01-30T12:26:12;10.20;99.90
9768;DHT22;4923;52.520;13.494;2024-01-30T12:28:59;10.20;99.90
9768;DHT22;4923;52.520;13.494;2024-01-30T12:31:47;10.40;99.90
9768;DHT22;4923;52.520;13.494;2024-01-30T12:34:34;10.30;99.90
9768;DHT22;4923;52.520;13.494;2024-01-30T12:37:21;10.20;99.90
9768;DHT22;4923;52.520;13.494;2024-01-30T12:40:11;10.10;99.90
9768;DHT22;4923;52.520;13.494;2024-01-30T12:43:01;10.20;99.90
9768;DHT22;4923;52.520;13.494;2024-01-30T12:45:48;10.10;99.90
9768;DHT22;4923;52.520;13.494;2024-01-30T12:48:35;10.10;99.90
9768;DHT22;4923;52.520;13.494;2024-01-30T12:51:22;10.10;99.90
9768;DHT22;4923;52.520;13.494;2024-01-30T12:54:09;10.20;99.90
9768;DHT22;4923;52.520;13.494;2024-01-30T12:56:56;10.10;99.90
9768;DHT22;4923;52.520;13.494;2024-01-30T12:59:45;10.00;99.90
9768;DHT22;4923;52.520;13.494;2024-01-30T13:02:32;10.00;99.90
9768;DHT22;4923;52.520;13.494;2024-01-30T13:05:22;10.00;99.90
9768;DHT22;4923;52.520;13.494;2024-01-30T13:08:09;10.00;99.90
9768;DHT22;4923;52.520;13.494;2024-01-30T13:10:56;9.90;99.90
9768;DHT22;4923;52.520;13.494;2024-01-30T13:13:43;9.90;99.90
9768;DHT22;4923;52.520;13.494;2024-01-30T13:16:31;9.80;99.90
9768;DHT22;4923;52.520;13.494;2024-01-30T13:19:18;9.70;99.90
9768;DHT22;4923;52.520;13.494;2024-01-30T13:22:05;9.60;99.90
9768;DHT22;4923;52.520;13.494;2024-01-30T13:24:52;9.60;99.90
9768;DHT22;4923;52.520;13.494;2024-01-30T13:27:39;9.70;99.90
9768;DHT22;4923;52.520;13.494;2024-01-30T13:30:26;9.50;99.90
9768;DHT22;4923;52.520;13.494;2024-01-30T13:33:14;9.50;99.90
9768;DHT22;4923;52.520;13.494;2024-01-30T13:36:01;9.50;99.90
9768;DHT22;4923;52.520;13.494;2024-01-30T13:38:48;9.40;99.90
9768;DHT22;4923;52.520;13.494;2024-01-30T13:41:35;9.40;99.90
9768;DHT22;4923;52.520;13.494;2024-01-30T13:44:21;9.50;99.90
9768;DHT22;4923;52.520;13.494;2024-01-30T13:47:08;9.40;99.90
9768;DHT22;4923;52.520;13.494;2024-01-30T13:49:56;9.40;99.90
9768;DHT22;4923;52.520;13.494;2024-01-30T13:52:43;9.50;99.90
9768;DHT22;4923;52.520;13.494;2024-01-30T13:55:30;9.60;99.90
9768;DHT22;4923;52.520;13.494;2024-01-30T13:58:17;9.60;99.90
9768;DHT22;4923;52.520;13.494;2024-01-30T14:01:04;9.60;99.90
9768;DHT22;4923;52.520;13.494;2024-01-30T14:03:51;9.60;99.90
9768;DHT22;4923;52.520;13.494;2024-01-30T14:06:39;9.50;99.90
9768;DHT22;4923;52.520;13.494;2024-01-30T14:09:26;9.50;99.90
9768;DHT22;4923;52.520;13.494;2024-01-30T14:12:12;9.40;99.90
9768;DHT22;4923;52.520;13.494;2024-01-30T14:14:59;9.30;99.90
9768;DHT22;4923;52.520;13.494;2024-01-30T14:17:46;9.20;99.90
9768;DHT22;4923;52.520;13.494;2024-01-30T14:20:35;9.20;99.90
9768;DHT22;4923;52.520;13.494;2024-01-30T14:23:24;9.20;99.90
9768;DHT22;4923;52.520;13.494;2024-01-30T14:26:10;9.20;99.90
9768;DHT22;4923;52.520;13.494;2024-01-30T14:28:57;9.20;99.90
9768;DHT22;4923;52.520;13.494;2024-01-30T14:31:44;9.20;99.90
9768;DHT22;4923;52.520;13.494;2024-01-30T14:34:31;9.20;99.90
9768;DHT22;4923;52.520;13.494;2024-01-30T14:37:18;9.20;99.90
9768;DHT22;4923;52.520;13.494;2024-01-30T14:40:07;9.10;99.90
9768;DHT22;4923;52.520;13.494;2024-01-30T14:42:54;9.10;99.90
9768;DHT22;4923;52.520;13.494;2024-01-30T14:45:41;9.10;99.90
9768;DHT22;4923;52.520;13.494;2024-01-30T14:48:28;9.00;99.90
9768;DHT22;4923;52.520;13.494;2024-01-30T14:51:16;9.00;99.90
9768;DHT22;4923;52.520;13.494;2024-01-30T14:54:03;9.00;99.90
9768;DHT22;4923;52.520;13.494;2024-01-30T14:56:51;8.90;99.90
9768;DHT22;4923;52.520;13.494;2024-01-30T14:59:38;8.90;99.90
9768;DHT22;4923;52.520;13.494;2024-01-30T15:02:24;8.80;99.90
9768;DHT22;4923;52.520;13.494;2024-01-30T15:05:12;8.70;99.90
9768;DHT22;4923;52.520;13.494;2024-01-30T15:07:58;8.70;99.90
9768;DHT22;4923;52.520;13.494;2024-01-30T15:10:45;8.60;99.90
9768;DHT22;4923;52.520;13.494;2024-01-30T15:13:33;8.60;99.90
9768;DHT22;4923;52.520;13.494;2024-01-30T15:16:20;8.50;99.90
9768;DHT22;4923;52.520;13.494;2024-01-30T15:19:08;8.40;99.90
9768;DHT22;4923;52.520;13.494;2024-01-30T15:21:54;8.30;99.90
9768;DHT22;4923;52.520;13.494;2024-01-30T15:24:41;8.30;99.90
9768;DHT22;4923;52.520;13.494;2024-01-30T15:27:28;8.20;99.90
9768;DHT22;4923;52.520;13.494;2024-01-30T15:30:16;8.10;99.90
9768;DHT22;4923;52.520;13.494;2024-01-30T15:33:05;8.10;99.90
9768;DHT22;4923;52.520;13.494;2024-01-30T15:35:52;8.00;99.90
9768;DHT22;4923;52.520;13.494;2024-01-30T15:38:39;8.00;99.90
9768;DHT22;4923;52.520;13.494;2024-01-30T15:41:26;7.90;99.90
9768;DHT22;4923;52.520;13.494;2024-01-30T15:44:13;8.00;99.90
9768;DHT22;4923;52.520;13.494;2024-01-30T15:47:01;7.90;99.90
9768;DHT22;4923;52.520;13.494;2024-01-30T15:49:48;7.80;99.90
9768;DHT22;4923;52.520;13.494;2024-01-30T15:52:34;7.80;99.90
9768;DHT22;4923;52.520;13.494;2024-01-30T15:55:21;7.70;99.90
9768;DHT22;4923;52.520;13.494;2024-01-30T15:58:08;7.70;99.90
9768;DHT22;4923;52.520;13.494;2024-01-30T16:00:55;7.60;99.90
9768;DHT22;4923;52.520;13.494;2024-01-30T16:03:43;7.60;99.90
9768;DHT22;4923;52.520;13.494;2024-01-30T16:06:30;7.60;99.90
9768;DHT22;4923;52.520;13.494;2024-01-30T16:09:17;7.50;99.90
9768;DHT22;4923;52.520;13.494;2024-01-30T16:12:05;7.40;99.90
9768;DHT22;4923;52.520;13.494;2024-01-30T16:14:52;7.30;99.90
9768;DHT22;4923;52.520;13.494;2024-01-30T16:17:38;7.30;99.90
9768;DHT22;4923;52.520;13.494;2024-01-30T16:20:27;7.20;99.90
9768;DHT22;4923;52.520;13.494;2024-01-30T16:23:13;7.30;99.90
9768;DHT22;4923;52.520;13.494;2024-01-30T16:26:00;7.30;99.90
9768;DHT22;4923;52.520;13.494;2024-01-30T16:28:47;7.30;99.90
9768;DHT22;4923;52.520;13.494;2024-01-30T16:31:34;7.20;99.90
9768;DHT22;4923;52.520;13.494;2024-01-30T16:34:21;7.20;99.90
9768;DHT22;4923;52.520;13.494;2024-01-30T16:37:09;7.20;99.90
9768;DHT22;4923;52.520;13.494;2024-01-30T16:39:56;7.20;99.90
9768;DHT22;4923;52.520;13.494;2024-01-30T16:42:43;7.20;99.90
9768;DHT22;4923;52.520;13.494;2024-01-30T16:45:30;7.20;99.90
9768;DHT22;4923;52.520;13.494;2024-01-30T16:48:17;7.20;99.90
9768;DHT22;4923;52.520;13.494;2024-01-30T16:51:06;7.20;99.90
9768;DHT22;4923;52.520;13.494;2024-01-30T16:53:54;7.20;99.90
9768;DHT22;4923;52.520;13.494;2024-01-30T16:56:41;7.30;99.90
9768;DHT22;4923;52.520;13.494;2024-01-30T16:59:33;7.20;99.90
9768;DHT22;4923;52.520;13.494;2024-01-30T17:02:20;7.20;99.90
9768;DHT22;4923;52.520;13.494;2024-01-30T17:05:07;7.20;99.90
9768;DHT22;4923;52.520;13.494;2024-01-30T17:07:54;7.10;99.90
9768;DHT22;4923;52.520;13.494;2024-01-30T17:10:42;7.10;99.90
9768;DHT22;4923;52.520;13.494;2024-01-30T17:13:29;7.20;99.90
9768;DHT22;4923;52.520;13.494;2024-01-30T17:16:15;7.30;99.90
9768;DHT22;4923;52.520;13.494;2024-01-30T17:19:02;7.30;99.90
9768;DHT22;4923;52.520;13.494;2024-01-30T17:21:50;7.30;99.90
9768;DHT22;4923;52.520;13.494;2024-01-30T17:24:37;7.40;99.90
9768;DHT22;4923;52.520;13.494;2024-01-30T17:27:26;7.30;99.90
9768;DHT22;4923;52.520;13.494;2024-01-30T17:30:13;7.30;99.90
9768;DHT22;4923;52.520;13.494;2024-01-30T17:33:00;7.30;99.90
9768;DHT22;4923;52.520;13.494;2024-01-30T17:35:47;7.30;99.90
9768;DHT22;4923;52.520;13.494;2024-01-30T17:38:34;7.20;99.90
9768;DHT22;4923;52.520;13.494;2024-01-30T17:41:21;7.20;99.90
9768;DHT22;4923;52.520;13.494;2024-01-30T17:44:09;7.20;99.90
9768;DHT22;4923;52.520;13.494;2024-01-30T17:46:57;7.30;99.90
9768;DHT22;4923;52.520;13.494;2024-01-30T17:49:44;7.30;99.90
9768;DHT22;4923;52.520;13.494;2024-01-30T17:52:30;7.20;99.90
9768;DHT22;4923;52.520;13.494;2024-01-30T17:55:17;7.20;99.90
9768;DHT22;4923;52.520;13.494;2024-01-30T17:58:04;7.20;99.90
9768;DHT22;4923;52.520;13.494;2024-01-30T18:00:53;7.20;99.90
9768;DHT22;4923;52.520;13.494;2024-01-30T18:03:42;7.20;99.90
9768;DHT22;4923;52.520;13.494;2024-01-30T18:06:29;7.20;99.90
9768;DHT22;4923;52.520;13.494;2024-01-30T18:09:16;7.30;99.90